Time;durP1;ratioP1;P1;durP2;ratioP2;P2;SDS_P1;SDS_P2;PMS_P1;PMS_P2;Temp;Humidity;BMP_temperature;BMP_pressure;BME280_temperature;BME280_humidity;BME280_pressure;Samples;Min_cycle;Max_cycle;Signal;HPM_P1;HPM_P2
2021/09/18 00:01:49;;;;;;;0.00;0.00;;;10.80;99.90;;;;;;4978836;28;20039;-91
2021/09/18 00:04:16;;;;;;;0.00;0.00;;;10.80;99.90;;;;;;4995336;28;20035;-91
2021/09/18 00:06:44;;;;;;;0.00;0.00;;;10.80;99.90;;;;;;4979671;28;20042;-92
2021/09/18 00:09:10;;;;;;;0.00;0.00;;;10.70;99.90;;;;;;4994969;28;20402;-92
2021/09/18 00:11:37;;;;;;;0.00;0.00;;;10.70;99.90;;;;;;4979000;28;20138;-91
2021/09/18 00:14:04;;;;;;;0.10;0.10;;;10.70;99.90;;;;;;4962704;28;20043;-92
2021/09/18 00:16:31;;;;;;;0.00;0.00;;;10.70;99.90;;;;;;4994923;28;20065;-91
2021/09/18 00:18:58;;;;;;;0.28;0.13;;;10.60;99.90;;;;;;4994678;28;20038;-91
2021/09/18 00:21:25;;;;;;;0.10;0.10;;;10.60;99.90;;;;;;4994932;28;20483;-92
2021/09/18 00:23:54;;;;;;;0.10;0.10;;;10.60;99.90;;;;;;4994605;28;20043;-92
2021/09/18 00:26:21;;;;;;;0.00;0.00;;;10.60;99.90;;;;;;4996500;28;20476;-91
2021/09/18 00:28:48;;;;;;;0.10;0.10;;;10.00;99.90;;;;;;4982495;28;20066;-92
2021/09/18 00:31:15;;;;;;;0.03;0.03;;;10.50;99.90;;;;;;4981646;28;20077;-92
2021/09/18 00:33:42;;;;;;;0.10;0.10;;;10.50;99.90;;;;;;4997958;28;20046;-92
2021/09/18 00:36:08;;;;;;;0.00;0.00;;;10.50;99.90;;;;;;4966551;28;20125;-92
2021/09/18 00:38:35;;;;;;;0.10;0.10;;;10.50;99.90;;;;;;4982217;28;20073;-92
2021/09/18 00:41:02;;;;;;;0.08;0.08;;;10.50;99.90;;;;;;4981914;28;20040;-91
2021/09/18 00:43:29;;;;;;;0.10;0.10;;;10.50;99.90;;;;;;4982066;28;20061;-92
2021/09/18 00:45:55;;;;;;;0.00;0.00;;;10.40;99.90;;;;;;4998095;28;20084;-92
2021/09/18 00:48:22;;;;;;;0.00;0.00;;;10.40;99.90;;;;;;4982083;28;20038;-92
2021/09/18 00:50:49;;;;;;;0.00;0.00;;;10.40;99.90;;;;;;4981737;28;20049;-91
2021/09/18 00:53:16;;;;;;;0.05;0.05;;;10.30;99.90;;;;;;4997385;28;20050;-92
2021/09/18 00:55:42;;;;;;;0.35;0.10;;;10.30;99.90;;;;;;4997806;28;20415;-92
2021/09/18 00:58:10;;;;;;;0.00;0.00;;;10.30;99.90;;;;;;4981114;28;20526;-93
2021/09/18 01:00:37;;;;;;;0.10;0.10;;;10.30;99.90;;;;;;4997469;28;20128;-92
2021/09/18 01:03:04;;;;;;;0.00;0.00;;;10.30;99.90;;;;;;4997000;28;20046;-92
2021/09/18 01:05:30;;;;;;;0.10;0.10;;;10.30;99.90;;;;;;5013576;28;20185;-92
2021/09/18 01:07:59;;;;;;;0.00;0.00;;;10.30;99.90;;;;;;4997623;28;20038;-92
2021/09/18 01:10:26;;;;;;;0.00;0.00;;;10.30;99.90;;;;;;4997289;28;20042;-92
2021/09/18 01:13:09;;;;;;;0.10;0.10;;;10.40;99.90;;;;;;4997259;28;20061;-92
2021/09/18 01:15:37;;;;;;;0.00;0.00;;;10.40;99.90;;;;;;4997456;28;20042;-92
2021/09/18 01:18:06;;;;;;;0.00;0.00;;;10.40;99.90;;;;;;4997103;28;20046;-92
2021/09/18 01:20:33;;;;;;;0.00;0.00;;;10.40;99.90;;;;;;4997207;28;20045;-92
2021/09/18 01:23:01;;;;;;;0.00;0.00;;;10.40;99.90;;;;;;4996841;28;20045;-92
2021/09/18 01:25:31;;;;;;;0.00;0.00;;;10.20;99.90;;;;;;4996812;28;20042;-92
2021/09/18 01:27:57;;;;;;;0.08;0.08;;;10.40;99.90;;;;;;4996743;28;20058;-92
2021/09/18 01:30:29;;;;;;;0.10;0.10;;;10.40;99.90;;;;;;4981137;28;20085;-92
2021/09/18 01:32:57;;;;;;;0.00;0.00;;;10.40;99.90;;;;;;4996986;28;20042;-92
2021/09/18 01:35:24;;;;;;;0.00;0.00;;;10.40;99.90;;;;;;4996095;28;20048;-92
2021/09/18 01:37:51;;;;;;;0.10;0.10;;;10.40;99.90;;;;;;4980726;28;20129;-92
2021/09/18 01:40:25;;;;;;;0.00;0.00;;;10.50;99.90;;;;;;4996493;28;20042;-92
2021/09/18 01:42:52;;;;;;;0.00;0.00;;;10.50;99.90;;;;;;4996967;28;20077;-93
2021/09/18 01:45:20;;;;;;;0.00;0.00;;;10.50;99.90;;;;;;4996552;28;20034;-92
2021/09/18 01:47:52;;;;;;;0.00;0.00;;;10.50;99.90;;;;;;4980731;28;20046;-92
2021/09/18 01:50:34;;;;;;;0.10;0.10;;;10.60;99.90;;;;;;4996314;28;20041;-92
2021/09/18 01:53:03;;;;;;;0.00;0.00;;;10.60;99.90;;;;;;4996115;28;20077;-92
2021/09/18 01:55:31;;;;;;;0.10;0.10;;;10.60;99.90;;;;;;4996159;28;20128;-92
2021/09/18 01:57:59;;;;;;;0.15;0.15;;;10.60;99.90;;;;;;4996463;28;20046;-93
2021/09/18 02:00:27;;;;;;;0.05;0.05;;;10.50;99.90;;;;;;4996437;28;20046;-92
2021/09/18 02:02:54;;;;;;;0.00;0.00;;;10.50;99.90;;;;;;4996589;28;20039;-92
2021/09/18 02:05:23;;;;;;;0.10;0.10;;;10.50;99.90;;;;;;4996200;28;20045;-92
2021/09/18 02:07:51;;;;;;;0.00;0.00;;;10.40;99.90;;;;;;4993818;28;20030;-92
2021/09/18 02:10:20;;;;;;;0.00;0.00;;;10.40;99.90;;;;;;4994411;28;20035;-92
2021/09/18 02:12:47;;;;;;;0.00;0.00;;;10.40;99.90;;;;;;4995254;28;20470;-93
2021/09/18 02:15:17;;;;;;;0.15;0.10;;;10.30;99.90;;;;;;4995513;28;20092;-92
2021/09/18 02:17:43;;;;;;;0.10;0.10;;;10.30;99.90;;;;;;4992086;28;20050;-92
2021/09/18 02:20:13;;;;;;;0.00;0.00;;;10.30;99.90;;;;;;4976534;28;20098;-92
2021/09/18 02:22:41;;;;;;;0.10;0.10;;;10.30;99.90;;;;;;4976624;28;20130;-92
2021/09/18 02:25:09;;;;;;;0.00;0.00;;;10.30;99.90;;;;;;4960409;28;20135;-92
2021/09/18 02:27:36;;;;;;;0.00;0.00;;;10.20;99.90;;;;;;4976136;28;20101;-92
2021/09/18 02:30:05;;;;;;;0.10;0.10;;;10.20;99.90;;;;;;4960646;28;20054;-91
2021/09/18 02:32:35;;;;;;;0.10;0.10;;;10.20;99.90;;;;;;4960487;28;20046;-92
2021/09/18 02:35:08;;;;;;;0.03;0.03;;;10.10;99.90;;;;;;4976298;28;20070;-91
2021/09/18 02:37:35;;;;;;;0.10;0.10;;;10.10;99.90;;;;;;4976663;28;20470;-92
2021/09/18 02:40:04;;;;;;;0.10;0.10;;;10.10;99.90;;;;;;4976198;28;20070;-92
2021/09/18 02:42:31;;;;;;;0.00;0.00;;;10.10;99.90;;;;;;4976034;28;20126;-92
2021/09/18 02:44:58;;;;;;;0.10;0.10;;;10.10;99.90;;;;;;4976100;28;20039;-92
2021/09/18 02:47:25;;;;;;;0.10;0.10;;;10.00;99.90;;;;;;4975094;28;20046;-91
2021/09/18 02:49:51;;;;;;;0.10;0.10;;;10.10;99.90;;;;;;4960548;28;20042;-92
2021/09/18 02:52:18;;;;;;;0.00;0.00;;;9.80;99.90;;;;;;4975989;28;20046;-92
2021/09/18 02:54:45;;;;;;;0.35;0.20;;;10.00;99.90;;;;;;4976079;28;20132;-92
2021/09/18 02:57:12;;;;;;;0.00;0.00;;;10.00;99.90;;;;;;4975668;28;20043;-92
2021/09/18 02:59:39;;;;;;;0.08;0.08;;;10.00;99.90;;;;;;4960130;28;20162;-92
2021/09/18 03:02:06;;;;;;;0.10;0.10;;;10.00;99.90;;;;;;4976045;28;20039;-92
2021/09/18 03:04:33;;;;;;;0.10;0.10;;;10.00;99.90;;;;;;4975933;28;20380;-92
2021/09/18 03:07:00;;;;;;;0.03;0.03;;;10.00;99.90;;;;;;4976580;28;20035;-92
2021/09/18 03:09:27;;;;;;;0.00;0.00;;;9.90;99.90;;;;;;4975947;28;20046;-92
2021/09/18 03:11:54;;;;;;;0.08;0.08;;;9.90;99.90;;;;;;4960530;28;20121;-91
2021/09/18 03:14:20;;;;;;;0.00;0.00;;;10.00;99.90;;;;;;4975855;28;20078;-91
2021/09/18 03:16:47;;;;;;;0.10;0.10;;;9.90;99.90;;;;;;4944255;28;20042;-91
2021/09/18 03:19:14;;;;;;;0.10;0.10;;;9.90;99.90;;;;;;4975864;28;20469;-92
2021/09/18 03:21:41;;;;;;;0.00;0.00;;;9.90;99.90;;;;;;4976005;28;20038;-92
2021/09/18 03:24:08;;;;;;;0.00;0.00;;;9.90;99.90;;;;;;4976062;28;20039;-92
2021/09/18 03:26:35;;;;;;;0.03;0.03;;;9.90;99.90;;;;;;4975766;28;20046;-92
2021/09/18 03:29:03;;;;;;;0.00;0.00;;;9.80;99.90;;;;;;4975735;28;20101;-92
2021/09/18 03:31:30;;;;;;;0.10;0.10;;;9.80;99.90;;;;;;4975589;28;20467;-92
2021/09/18 03:33:57;;;;;;;0.10;0.10;;;9.80;99.90;;;;;;4960285;28;20034;-92
2021/09/18 03:36:24;;;;;;;0.10;0.10;;;9.90;99.90;;;;;;4975670;28;20046;-92
2021/09/18 03:38:51;;;;;;;0.10;0.10;;;9.70;99.90;;;;;;4960090;28;20082;-92
2021/09/18 03:41:18;;;;;;;0.00;0.00;;;9.50;99.90;;;;;;4959806;28;20136;-92
2021/09/18 03:43:45;;;;;;;0.65;0.43;;;9.70;99.90;;;;;;4976041;28;20038;-91
2021/09/18 03:46:12;;;;;;;0.03;0.03;;;9.70;99.90;;;;;;4975871;28;20042;-91
2021/09/18 03:48:39;;;;;;;0.10;0.10;;;9.70;99.90;;;;;;4975741;28;20049;-92
2021/09/18 03:51:06;;;;;;;0.00;0.00;;;9.70;99.90;;;;;;4975945;28;20051;-92
2021/09/18 03:53:33;;;;;;;0.00;0.00;;;9.60;99.90;;;;;;4959628;28;20113;-92
2021/09/18 03:56:01;;;;;;;0.10;0.10;;;9.60;99.90;;;;;;4975605;28;20376;-92
2021/09/18 03:58:28;;;;;;;0.00;0.00;;;9.60;99.90;;;;;;4975707;28;20086;-92
2021/09/18 04:00:55;;;;;;;0.08;0.08;;;9.60;99.90;;;;;;4963589;28;20474;-92
2021/09/18 04:03:21;;;;;;;0.00;0.00;;;9.60;99.90;;;;;;4963115;28;20039;-92
2021/09/18 04:05:48;;;;;;;0.10;0.10;;;9.60;99.90;;;;;;4979459;28;20448;-91
2021/09/18 04:08:15;;;;;;;0.10;0.10;;;9.60;99.90;;;;;;4963416;28;20038;-91
2021/09/18 04:10:42;;;;;;;0.10;0.10;;;9.60;99.90;;;;;;4978976;28;20043;-92
2021/09/18 04:13:09;;;;;;;0.10;0.10;;;9.60;99.90;;;;;;4978826;28;20061;-92
2021/09/18 04:15:36;;;;;;;0.00;0.00;;;9.60;99.90;;;;;;4978544;28;20053;-92
2021/09/18 04:18:03;;;;;;;0.00;0.00;;;9.60;99.90;;;;;;4978810;28;20489;-91
2021/09/18 04:20:30;;;;;;;0.10;0.10;;;9.60;99.90;;;;;;4978431;28;20123;-92
2021/09/18 04:22:57;;;;;;;0.08;0.08;;;9.70;99.90;;;;;;4978786;28;20043;-92
2021/09/18 04:25:24;;;;;;;0.10;0.10;;;9.70;99.90;;;;;;4962369;28;20162;-92
2021/09/18 04:27:51;;;;;;;0.00;0.00;;;9.60;99.90;;;;;;4978530;28;20550;-92
2021/09/18 04:30:18;;;;;;;0.08;0.08;;;9.60;99.90;;;;;;4978645;28;20057;-92
2021/09/18 04:32:45;;;;;;;0.05;0.05;;;9.60;99.90;;;;;;4978743;28;20039;-91
2021/09/18 04:35:12;;;;;;;0.00;0.00;;;9.60;99.90;;;;;;4962848;28;20479;-91
2021/09/18 04:37:40;;;;;;;0.20;0.10;;;9.60;99.90;;;;;;4962395;28;20042;-92
2021/09/18 04:40:08;;;;;;;0.10;0.10;;;9.60;99.90;;;;;;4978346;28;20042;-92
2021/09/18 04:42:34;;;;;;;0.10;0.10;;;9.50;99.90;;;;;;4978356;28;20043;-90
2021/09/18 04:45:02;;;;;;;0.10;0.10;;;9.50;99.90;;;;;;4978707;28;20031;-91
2021/09/18 04:47:28;;;;;;;0.00;0.00;;;9.50;99.90;;;;;;4978158;28;20039;-91
2021/09/18 04:49:55;;;;;;;0.10;0.10;;;9.50;99.90;;;;;;4978539;28;20042;-91
2021/09/18 04:52:22;;;;;;;0.00;0.00;;;9.50;99.90;;;;;;4962086;28;20074;-92
2021/09/18 04:54:49;;;;;;;0.00;0.00;;;9.50;99.90;;;;;;4977777;28;20394;-91
2021/09/18 04:57:15;;;;;;;0.10;0.10;;;9.40;99.90;;;;;;4961544;28;20050;-92
2021/09/18 04:59:42;;;;;;;0.00;0.00;;;9.50;99.90;;;;;;4977439;28;20042;-92
2021/09/18 05:02:09;;;;;;;0.13;0.10;;;9.40;99.90;;;;;;4961889;28;20039;-92
2021/09/18 05:04:36;;;;;;;0.10;0.10;;;9.40;99.90;;;;;;4962137;28;20039;-91
2021/09/18 05:07:03;;;;;;;0.10;0.10;;;9.40;99.90;;;;;;4994463;28;20137;-91
2021/09/18 05:09:29;;;;;;;0.00;0.00;;;9.40;99.90;;;;;;4961843;28;20078;-91
2021/09/18 05:11:56;;;;;;;0.15;0.15;;;9.40;99.90;;;;;;4976693;28;20050;-92
2021/09/18 05:14:23;;;;;;;0.00;0.00;;;9.40;99.90;;;;;;4978071;28;20053;-92
2021/09/18 05:16:50;;;;;;;0.00;0.00;;;9.30;99.90;;;;;;4977847;28;20137;-92
2021/09/18 05:19:17;;;;;;;0.05;0.05;;;9.40;99.90;;;;;;4962236;28;20039;-92
2021/09/18 05:21:43;;;;;;;0.10;0.10;;;9.30;99.90;;;;;;4977976;28;20194;-92
2021/09/18 05:24:10;;;;;;;0.10;0.10;;;9.40;99.90;;;;;;4961908;28;20045;-91
2021/09/18 05:26:37;;;;;;;0.00;0.00;;;8.90;99.90;;;;;;4961675;28;20046;-92
2021/09/18 05:29:04;;;;;;;0.00;0.00;;;9.40;99.90;;;;;;4978011;28;20603;-92
2021/09/18 05:31:30;;;;;;;0.10;0.10;;;9.40;99.90;;;;;;4961730;28;20502;-92
2021/09/18 05:33:57;;;;;;;0.00;0.00;;;9.40;99.90;;;;;;4978110;28;20039;-92
2021/09/18 05:36:24;;;;;;;0.10;0.10;;;9.40;99.90;;;;;;4961725;28;20038;-92
2021/09/18 05:38:51;;;;;;;0.00;0.00;;;9.40;99.90;;;;;;4977382;28;20133;-91
2021/09/18 05:41:17;;;;;;;0.10;0.10;;;9.50;99.90;;;;;;4977897;28;20034;-92
2021/09/18 05:43:46;;;;;;;0.10;0.10;;;9.50;99.90;;;;;;4976931;28;20121;-92
2021/09/18 05:46:13;;;;;;;0.00;0.00;;;9.50;99.90;;;;;;4977414;28;20046;-91
2021/09/18 05:48:40;;;;;;;0.20;0.20;;;9.60;99.90;;;;;;4977890;28;20487;-91
2021/09/18 05:51:07;;;;;;;0.00;0.00;;;9.60;99.90;;;;;;4980458;28;20035;-91
2021/09/18 05:53:34;;;;;;;0.08;0.08;;;9.60;99.90;;;;;;4996825;28;20046;-92
2021/09/18 05:56:01;;;;;;;0.10;0.10;;;9.70;99.90;;;;;;4996434;28;20038;-92
2021/09/18 05:58:27;;;;;;;0.10;0.10;;;9.70;99.90;;;;;;4996388;28;20045;-91
2021/09/18 06:00:54;;;;;;;0.08;0.08;;;9.80;99.90;;;;;;4992513;28;20038;-91
2021/09/18 06:03:21;;;;;;;0.00;0.00;;;10.00;99.90;;;;;;4968316;28;20057;-91
2021/09/18 06:05:48;;;;;;;0.10;0.10;;;9.90;99.90;;;;;;4977293;28;20133;-91
2021/09/18 06:08:15;;;;;;;0.10;0.10;;;10.00;99.90;;;;;;4992770;28;20038;-91
2021/09/18 06:10:41;;;;;;;0.00;0.00;;;10.00;99.90;;;;;;4977198;28;20046;-92
2021/09/18 06:13:08;;;;;;;0.10;0.10;;;10.10;99.90;;;;;;4988371;28;20565;-92
2021/09/18 06:15:35;;;;;;;0.10;0.10;;;10.10;99.90;;;;;;4976900;28;20065;-92
2021/09/18 06:18:02;;;;;;;0.00;0.00;;;10.20;99.90;;;;;;4961017;28;20042;-92
2021/09/18 06:20:29;;;;;;;0.00;0.00;;;10.20;99.90;;;;;;4976656;28;20035;-92
2021/09/18 06:22:56;;;;;;;0.10;0.10;;;10.20;99.90;;;;;;4961101;28;20079;-92
2021/09/18 06:25:23;;;;;;;0.57;0.10;;;10.30;99.90;;;;;;4984180;28;20049;-92
2021/09/18 06:27:50;;;;;;;0.10;0.10;;;10.40;99.90;;;;;;4976047;28;20121;-92
2021/09/18 06:30:17;;;;;;;0.20;0.17;;;10.50;99.90;;;;;;4961344;28;20483;-92
2021/09/18 06:32:43;;;;;;;0.00;0.00;;;10.50;99.90;;;;;;4976501;28;20074;-92
2021/09/18 06:35:10;;;;;;;0.10;0.10;;;10.60;99.90;;;;;;4977152;28;20039;-92
2021/09/18 06:37:45;;;;;;;0.10;0.10;;;10.70;99.90;;;;;;4976344;28;20042;-92
2021/09/18 06:40:14;;;;;;;0.00;0.00;;;10.70;99.90;;;;;;4976384;28;20046;-92
2021/09/18 06:42:41;;;;;;;0.00;0.00;;;10.80;99.90;;;;;;4967312;28;20039;-92
2021/09/18 06:45:08;;;;;;;0.00;0.00;;;10.90;99.90;;;;;;4976315;28;20056;-92
2021/09/18 06:47:36;;;;;;;0.00;0.00;;;10.90;99.90;;;;;;4976417;28;20043;-92
2021/09/18 06:50:04;;;;;;;0.08;0.08;;;11.10;99.90;;;;;;4976589;28;20505;-92
2021/09/18 06:52:31;;;;;;;0.03;0.03;;;11.10;99.90;;;;;;4976562;28;20133;-93
2021/09/18 06:55:00;;;;;;;0.00;0.00;;;11.20;99.90;;;;;;4992814;28;20486;-92
2021/09/18 06:57:27;;;;;;;0.10;0.10;;;11.30;99.90;;;;;;4960252;28;20046;-92
2021/09/18 06:59:54;;;;;;;0.00;0.00;;;11.40;99.90;;;;;;4976362;28;20035;-92
2021/09/18 07:02:21;;;;;;;0.00;0.00;;;11.50;99.90;;;;;;4960974;28;20039;-92
2021/09/18 07:04:47;;;;;;;0.00;0.00;;;11.70;99.90;;;;;;4959992;28;20038;-92
2021/09/18 07:07:14;;;;;;;0.10;0.10;;;11.80;99.90;;;;;;4976114;28;20046;-92
2021/09/18 07:09:41;;;;;;;0.03;0.03;;;11.90;99.90;;;;;;4975931;28;20045;-92
2021/09/18 07:12:08;;;;;;;0.00;0.00;;;12.00;99.90;;;;;;4971346;28;20046;-92
2021/09/18 07:14:35;;;;;;;0.00;0.00;;;12.00;99.90;;;;;;4980951;28;20043;-92
2021/09/18 07:17:02;;;;;;;0.00;0.00;;;12.20;99.90;;;;;;4994951;28;20430;-92
2021/09/18 07:19:28;;;;;;;0.00;0.00;;;12.30;99.90;;;;;;4980165;28;20030;-93
2021/09/18 07:21:55;;;;;;;0.10;0.10;;;12.50;99.90;;;;;;4979089;28;20042;-92
2021/09/18 07:24:22;;;;;;;0.10;0.10;;;12.70;99.90;;;;;;4995755;28;20046;-92
2021/09/18 07:26:49;;;;;;;0.00;0.00;;;12.80;99.90;;;;;;4995038;28;20477;-91
2021/09/18 07:29:15;;;;;;;0.00;0.00;;;12.90;99.90;;;;;;4995253;28;20046;-92
2021/09/18 07:31:42;;;;;;;0.00;0.00;;;13.00;99.90;;;;;;4994858;28;20042;-92
2021/09/18 07:34:09;;;;;;;0.00;0.00;;;13.10;99.90;;;;;;4981888;28;20386;-91
2021/09/18 07:36:36;;;;;;;0.08;0.08;;;13.20;99.90;;;;;;4983464;28;20084;-91
2021/09/18 07:39:02;;;;;;;0.00;0.00;;;13.30;99.90;;;;;;4967178;28;20050;-91
2021/09/18 07:41:32;;;;;;;0.77;0.20;;;13.40;99.90;;;;;;4983102;28;20043;-91
2021/09/18 07:44:00;;;;;;;0.00;0.00;;;13.50;99.90;;;;;;4982819;28;20042;-90
2021/09/18 07:46:30;;;;;;;0.10;0.10;;;13.60;99.90;;;;;;4967674;28;20180;-89
2021/09/18 07:48:58;;;;;;;0.03;0.03;;;13.60;99.90;;;;;;4982994;28;20506;-89
2021/09/18 07:51:26;;;;;;;0.13;0.13;;;13.80;99.90;;;;;;4982737;28;20060;-89
2021/09/18 07:53:53;;;;;;;0.00;0.00;;;13.90;99.90;;;;;;4998210;28;20085;-93
2021/09/18 07:56:23;;;;;;;0.00;0.00;;;14.00;99.90;;;;;;4996530;28;20034;-94
2021/09/18 07:58:49;;;;;;;0.00;0.00;;;14.10;99.90;;;;;;4966499;28;20065;-94
2021/09/18 08:01:18;;;;;;;0.00;0.00;;;14.30;99.90;;;;;;4982643;28;20038;-95
2021/09/18 08:03:45;;;;;;;0.00;0.00;;;14.40;99.90;;;;;;4998409;28;20073;-96
2021/09/18 08:06:11;;;;;;;0.00;0.00;;;14.40;99.90;;;;;;4995058;28;20031;-95
2021/09/18 08:08:38;;;;;;;0.00;0.00;;;14.60;99.90;;;;;;4979611;28;20035;-93
2021/09/18 08:11:05;;;;;;;0.05;0.05;;;14.70;99.90;;;;;;4986338;28;20043;-93
2021/09/18 08:13:34;;;;;;;0.00;0.00;;;14.70;99.90;;;;;;4998300;28;20049;-92
2021/09/18 08:16:01;;;;;;;0.00;0.00;;;14.80;99.90;;;;;;4998193;28;20045;-91
2021/09/18 08:18:28;;;;;;;0.00;0.00;;;14.80;99.90;;;;;;4998725;28;20486;-91
2021/09/18 08:20:55;;;;;;;0.00;0.00;;;14.90;99.90;;;;;;4982189;28;20042;-87
2021/09/18 08:23:22;;;;;;;0.00;0.00;;;14.90;99.90;;;;;;4982594;28;20042;-90
2021/09/18 08:25:48;;;;;;;0.00;0.00;;;15.00;99.90;;;;;;4981775;28;20042;-91
2021/09/18 08:28:18;;;;;;;0.00;0.00;;;15.10;99.90;;;;;;4998148;28;20058;-91
2021/09/18 08:30:45;;;;;;;0.00;0.00;;;15.20;99.90;;;;;;4998221;28;20152;-91
2021/09/18 08:33:12;;;;;;;0.00;0.00;;;15.30;99.90;;;;;;4998008;28;20116;-90
2021/09/18 08:35:38;;;;;;;0.03;0.03;;;15.40;99.90;;;;;;4981880;28;20156;-90
2021/09/18 08:38:11;;;;;;;0.00;0.00;;;15.40;99.90;;;;;;4965894;28;20181;-91
2021/09/18 08:40:39;;;;;;;0.00;0.00;;;15.60;99.90;;;;;;4978554;28;20035;-91
2021/09/18 08:43:12;;;;;;;0.00;0.00;;;15.70;99.90;;;;;;4994361;28;20043;-91
2021/09/18 08:45:45;;;;;;;0.00;0.00;;;15.80;99.90;;;;;;4996694;28;20038;-90
2021/09/18 08:48:13;;;;;;;0.00;0.00;;;15.80;99.90;;;;;;4998601;28;20486;-91
2021/09/18 08:50:40;;;;;;;0.00;0.00;;;15.90;99.90;;;;;;4999851;28;20034;-91
2021/09/18 08:53:06;;;;;;;0.00;0.00;;;16.00;99.90;;;;;;4999248;28;20101;-92
2021/09/18 08:55:33;;;;;;;0.05;0.05;;;16.10;99.90;;;;;;4999236;28;20501;-91
2021/09/18 08:58:00;;;;;;;0.10;0.10;;;16.20;99.90;;;;;;4982719;28;20084;-90
2021/09/18 09:00:33;;;;;;;0.03;0.03;;;16.30;99.90;;;;;;4999639;28;20042;-91
2021/09/18 09:03:13;;;;;;;0.10;0.10;;;16.40;99.90;;;;;;4998439;28;20034;-90
2021/09/18 09:05:43;;;;;;;0.00;0.00;;;16.50;99.90;;;;;;4999103;28;20505;-90
2021/09/18 09:08:22;;;;;;;0.00;0.00;;;16.60;99.90;;;;;;4998826;28;20085;-91
2021/09/18 09:10:49;;;;;;;0.10;0.10;;;16.70;99.90;;;;;;4998535;28;20137;-91
2021/09/18 09:13:18;;;;;;;0.10;0.10;;;16.80;99.90;;;;;;4983250;28;20081;-90
2021/09/18 09:15:47;;;;;;;0.13;0.13;;;16.80;99.90;;;;;;4998728;28;20084;-90
2021/09/18 09:18:23;;;;;;;0.13;0.10;;;17.00;99.90;;;;;;4997190;28;20046;-91
2021/09/18 09:21:06;;;;;;;0.10;0.10;;;17.10;99.90;;;;;;4998794;28;20084;-90
2021/09/18 09:23:33;;;;;;;0.10;0.10;;;17.20;99.90;;;;;;4998729;28;20586;-91
2021/09/18 09:26:00;;;;;;;0.10;0.10;;;17.30;99.90;;;;;;4998840;28;20509;-90
2021/09/18 09:28:37;;;;;;;0.60;0.25;;;17.40;99.90;;;;;;4997973;28;20058;-89
2021/09/18 09:31:23;;;;;;;0.60;0.40;;;17.50;99.90;;;;;;4998656;28;20042;-90
2021/09/18 09:34:16;;;;;;;0.28;0.22;;;17.60;99.90;;;;;;5012997;28;20042;-91
2021/09/18 09:36:52;;;;;;;0.10;0.10;;;17.60;99.90;;;;;;5013099;28;20057;-90
2021/09/18 09:39:25;;;;;;;0.00;0.00;;;17.70;99.90;;;;;;4996639;28;20368;-90
2021/09/18 09:41:54;;;;;;;0.20;0.20;;;17.80;99.90;;;;;;4996722;28;20403;-90
2021/09/18 09:44:32;;;;;;;0.13;0.13;;;17.90;99.90;;;;;;4996370;28;20128;-90
2021/09/18 09:47:01;;;;;;;0.20;0.20;;;18.00;99.90;;;;;;4996372;28;20129;-91
2021/09/18 09:49:54;;;;;;;0.25;0.20;;;18.10;99.90;;;;;;4996430;28;20035;-89
2021/09/18 09:52:30;;;;;;;0.22;0.17;;;18.10;99.90;;;;;;4996685;28;20038;-91
2021/09/18 09:55:11;;;;;;;0.13;0.13;;;18.20;99.90;;;;;;4996806;28;20042;-90
2021/09/18 09:57:43;;;;;;;0.10;0.10;;;18.10;99.90;;;;;;4996573;28;20505;-88
2021/09/18 10:00:13;;;;;;;0.05;0.05;;;18.10;99.90;;;;;;4996167;28;20493;-90
2021/09/18 10:02:42;;;;;;;0.10;0.10;;;18.10;99.90;;;;;;4996716;28;20039;-90
2021/09/18 10:05:14;;;;;;;0.35;0.20;;;17.90;99.90;;;;;;4996374;28;20041;-90
2021/09/18 10:07:42;;;;;;;0.57;0.20;;;17.80;99.90;;;;;;5012126;28;20490;-92
2021/09/18 10:10:11;;;;;;;0.68;0.20;;;17.80;99.90;;;;;;4996301;28;20081;-89
2021/09/18 10:12:50;;;;;;;0.10;0.10;;;18.00;99.90;;;;;;4996754;28;20046;-91
2021/09/18 10:15:18;;;;;;;0.10;0.10;;;18.10;99.90;;;;;;4995951;28;20041;-90
2021/09/18 10:17:47;;;;;;;0.43;0.32;;;18.20;99.90;;;;;;4996164;28;20038;-89
2021/09/18 10:23:13;;;;;;;0.20;0.20;;;18.30;99.90;;;;;;5011808;28;20045;-89
2021/09/18 10:23:17;;;;;;;0.10;0.10;;;18.30;99.90;;;;;;5011927;28;20042;-90
2021/09/18 10:25:56;;;;;;;0.13;0.13;;;18.40;99.90;;;;;;5012109;28;20542;-91
2021/09/18 10:28:26;;;;;;;0.10;0.10;;;18.50;99.90;;;;;;4995688;28;20054;-90
2021/09/18 10:31:17;;;;;;;0.10;0.10;;;18.60;99.90;;;;;;4996037;28;20049;-89
2021/09/18 10:33:51;;;;;;;0.40;0.32;;;18.70;99.90;;;;;;4995852;28;20141;-92
2021/09/18 10:36:27;;;;;;;0.13;0.13;;;18.80;99.90;;;;;;4995512;28;20042;-92
2021/09/18 10:39:09;;;;;;;0.55;0.22;;;18.90;99.90;;;;;;4995734;28;20042;-92
2021/09/18 10:41:41;;;;;;;0.20;0.20;;;18.90;99.90;;;;;;4995877;28;20397;-92
2021/09/18 10:44:08;;;;;;;0.28;0.20;;;18.70;99.90;;;;;;4995761;28;20042;-92
2021/09/18 10:46:46;;;;;;;0.30;0.25;;;18.80;99.90;;;;;;4995758;28;20474;-95
2021/09/18 10:49:52;;;;;;;0.30;0.20;;;18.90;99.90;;;;;;5016093;28;20038;-96
2021/09/18 10:52:22;;;;;;;0.57;0.35;;;18.90;99.90;;;;;;5030211;28;20052;-96
2021/09/18 10:55:10;;;;;;;0.30;0.17;;;19.00;99.90;;;;;;5000766;28;20042;-94
2021/09/18 10:57:45;;;;;;;0.10;0.10;;;19.10;99.90;;;;;;4995836;28;20049;-96
2021/09/18 11:00:19;;;;;;;;;;;19.30;99.90;;;;;;4998569;28;20045;-96
2021/09/18 11:02:51;;;;;;;0.52;0.20;;;19.20;99.90;;;;;;4998446;28;19917;-96
2021/09/18 11:05:36;;;;;;;0.30;0.25;;;19.20;99.90;;;;;;4998271;28;20089;-96
2021/09/18 11:10:44;;;;;;;1.25;0.50;;;19.10;99.90;;;;;;5762779;22;20073;-96
2021/09/18 11:13:12;;;;;;;0.73;0.30;;;19.10;99.90;;;;;;5042366;28;20054;-96
2021/09/18 11:15:55;;;;;;;1.95;0.35;;;19.10;99.90;;;;;;5038772;28;20053;-96
2021/09/18 11:18:40;;;;;;;0.38;0.28;;;19.00;99.90;;;;;;5039438;28;20132;-96
2021/09/18 11:21:10;;;;;;;0.10;0.10;;;18.80;99.90;;;;;;5035732;28;20187;-96
2021/09/18 11:23:48;;;;;;;0.25;0.20;;;18.70;99.90;;;;;;5037559;28;20048;-96
2021/09/18 11:26:39;;;;;;;0.20;0.20;;;18.70;99.90;;;;;;5021610;28;20053;-92
2021/09/18 11:29:09;;;;;;;0.90;0.38;;;18.70;99.90;;;;;;5016213;28;20046;-93
2021/09/18 11:31:52;;;;;;;0.10;0.10;;;18.60;99.90;;;;;;5016309;28;20050;-94
2021/09/18 11:34:26;;;;;;;0.10;0.10;;;18.50;99.90;;;;;;5032245;28;20069;-96
2021/09/18 11:36:56;;;;;;;0.10;0.10;;;18.50;99.90;;;;;;5018646;28;20053;-96
2021/09/18 11:39:43;;;;;;;0.32;0.20;;;18.70;99.90;;;;;;5020952;28;20046;-96
2021/09/18 11:42:19;;;;;;;0.50;0.17;;;18.90;99.90;;;;;;5042549;28;20038;-96
2021/09/18 11:44:48;;;;;;;0.30;0.30;;;19.10;99.90;;;;;;5023156;28;20042;-96
2021/09/18 11:47:26;;;;;;;0.38;0.35;;;19.30;99.90;;;;;;5022052;28;20046;-96
2021/09/18 11:49:53;;;;;;;0.30;0.30;;;19.50;99.90;;;;;;5019557;28;20085;-94
2021/09/18 11:52:33;;;;;;;0.15;0.15;;;19.60;99.90;;;;;;5015542;28;20049;-95
2021/09/18 11:54:59;;;;;;;0.50;0.30;;;19.80;99.90;;;;;;5015370;28;20054;-92
2021/09/18 11:57:26;;;;;;;0.20;0.20;;;20.00;99.90;;;;;;4982423;28;20038;-92
2021/09/18 11:59:53;;;;;;;0.32;0.20;;;20.10;99.90;;;;;;4999200;28;20046;-94
2021/09/18 12:02:30;;;;;;;0.20;0.20;;;20.20;99.90;;;;;;4984366;28;20042;-94
2021/09/18 12:04:57;;;;;;;0.20;0.20;;;20.30;99.90;;;;;;4998860;28;20486;-96
2021/09/18 12:07:33;;;;;;;0.40;0.22;;;20.40;99.90;;;;;;5017736;28;20097;-96
2021/09/18 12:10:10;;;;;;;0.38;0.28;;;20.60;99.90;;;;;;4999672;28;20383;-94
2021/09/18 12:12:37;;;;;;;0.20;0.20;;;20.60;99.90;;;;;;5014428;28;20090;-94
2021/09/18 12:15:04;;;;;;;0.30;0.20;;;20.50;99.90;;;;;;4998889;28;20160;-96
2021/09/18 12:17:37;;;;;;;0.30;0.30;;;20.40;99.90;;;;;;5014490;28;20061;-96
2021/09/18 12:20:10;;;;;;;0.43;0.30;;;20.30;99.90;;;;;;5014292;28;20478;-96
2021/09/18 12:22:38;;;;;;;0.38;0.28;;;20.30;99.90;;;;;;5014625;28;20129;-96
2021/09/18 12:25:27;;;;;;;0.17;0.17;;;20.20;99.90;;;;;;5014574;28;20040;-96
2021/09/18 12:28:00;;;;;;;0.25;0.25;;;20.00;99.90;;;;;;5015453;28;20070;-96
2021/09/18 12:30:45;;;;;;;0.20;0.20;;;20.00;99.90;;;;;;5014986;28;20042;-95
2021/09/18 12:33:27;;;;;;;0.25;0.20;;;19.90;99.90;;;;;;5014427;28;20375;-95
2021/09/18 12:36:21;;;;;;;0.32;0.30;;;19.90;99.90;;;;;;5014674;28;20061;-96
2021/09/18 12:39:06;;;;;;;0.10;0.10;;;19.90;99.90;;;;;;5013842;28;20049;-96
2021/09/18 12:45:37;;;;;;;0.65;0.38;;;19.90;99.90;;;;;;5010370;28;20045;-96
2021/09/18 12:48:24;;;;;;;0.63;0.30;;;19.70;99.90;;;;;;4996603;28;20077;-96
2021/09/18 12:50:56;;;;;;;0.25;0.20;;;19.80;99.90;;;;;;5014914;28;20080;-96
2021/09/18 12:53:50;;;;;;;0.28;0.22;;;19.60;99.90;;;;;;5013767;28;20038;-96
2021/09/18 12:56:25;;;;;;;0.65;0.35;;;19.60;99.90;;;;;;5009633;28;20050;-96
2021/09/18 12:58:56;;;;;;;0.38;0.20;;;19.60;99.90;;;;;;5014585;28;20545;-96
2021/09/18 13:01:43;;;;;;;0.43;0.25;;;19.70;99.90;;;;;;5014135;28;20074;-96
2021/09/18 13:04:29;;;;;;;0.52;0.40;;;19.70;99.90;;;;;;5014293;28;20533;-96
2021/09/18 13:07:02;;;;;;;0.30;0.30;;;19.80;99.90;;;;;;5014668;28;20045;-95
2021/09/18 13:09:35;;;;;;;0.30;0.30;;;19.60;99.90;;;;;;5013894;28;20046;-95
2021/09/18 13:12:15;;;;;;;0.30;0.30;;;19.60;99.90;;;;;;5013716;28;20510;-96